createdAt,value
2023-12-02T00:03:59.857Z,36.35
2023-12-02T00:09:02.070Z,36.37
2023-12-02T00:14:04.285Z,36.37
2023-12-02T00:19:06.497Z,36.39
2023-12-02T00:24:08.854Z,36.41
2023-12-02T00:29:11.041Z,36.43
2023-12-02T00:34:13.162Z,36.47
2023-12-02T00:39:16.122Z,36.49
2023-12-02T00:44:18.278Z,36.42
2023-12-02T00:49:20.500Z,36.52
2023-12-02T00:54:22.820Z,36.37
2023-12-02T00:59:25.311Z,36.35
2023-12-02T01:04:27.480Z,36.42
2023-12-02T01:09:29.953Z,36.46
2023-12-02T01:14:32.185Z,36.56
2023-12-02T01:19:35.421Z,36.54
2023-12-02T01:24:37.857Z,36.50
2023-12-02T01:29:40.026Z,36.36
2023-12-02T01:34:42.283Z,36.43
2023-12-02T01:39:44.448Z,36.21
2023-12-02T01:44:46.648Z,36.37
2023-12-02T01:49:49.554Z,36.50
2023-12-02T01:54:51.798Z,36.56
2023-12-02T01:59:55.131Z,36.47
2023-12-02T02:04:57.558Z,36.49
2023-12-02T02:09:59.768Z,36.40
2023-12-02T02:15:02.051Z,36.53
2023-12-02T02:20:05.396Z,36.45
2023-12-02T02:25:07.807Z,36.56
2023-12-02T02:30:10.760Z,36.47
2023-12-02T02:35:12.938Z,36.45
2023-12-02T02:40:15.484Z,36.36
2023-12-02T02:45:17.744Z,36.36
2023-12-02T02:50:21.221Z,36.29
2023-12-02T02:55:23.362Z,36.43
2023-12-02T03:00:25.606Z,36.45
2023-12-02T03:05:28.235Z,36.42
2023-12-02T03:10:30.971Z,36.44
2023-12-02T03:15:33.190Z,36.37
2023-12-02T03:20:35.525Z,36.49
2023-12-02T03:25:37.696Z,36.29
2023-12-02T03:30:39.951Z,36.49
2023-12-02T03:35:42.169Z,36.28
2023-12-02T03:40:44.293Z,36.33
2023-12-02T03:45:47.741Z,36.39
2023-12-02T03:50:49.853Z,36.27
2023-12-02T03:55:54.420Z,36.56
2023-12-02T04:00:56.744Z,36.35
2023-12-02T04:05:58.872Z,36.34
2023-12-02T04:11:01.033Z,36.41
2023-12-02T04:16:03.223Z,36.42
2023-12-02T04:21:10.054Z,36.40
2023-12-02T04:26:12.356Z,36.56
2023-12-02T04:31:14.571Z,36.26
2023-12-02T04:36:16.769Z,36.40
2023-12-02T04:41:19.026Z,36.35
2023-12-02T04:46:21.202Z,36.38
2023-12-02T04:51:23.741Z,36.25
2023-12-02T04:56:26.389Z,36.21
2023-12-02T05:01:28.611Z,36.05
2023-12-02T05:06:30.801Z,36.18
2023-12-02T05:11:32.943Z,36.32
2023-12-02T05:16:35.102Z,36.17
2023-12-02T05:21:38.347Z,36.04
2023-12-02T05:26:40.564Z,36.05
2023-12-02T05:31:42.742Z,36.07
2023-12-02T05:36:50.718Z,36.02
2023-12-02T05:41:53.137Z,36.22
2023-12-02T05:46:55.574Z,36.12
2023-12-02T05:51:57.804Z,36.37
2023-12-02T05:57:00.010Z,35.97
2023-12-02T06:02:02.116Z,36.25
2023-12-02T06:07:04.414Z,36.17
2023-12-02T06:12:06.964Z,36.01
2023-12-02T06:17:10.151Z,36.03
2023-12-02T06:22:12.264Z,35.98
2023-12-02T06:27:14.481Z,36.05
2023-12-02T06:32:16.848Z,36.00
2023-12-02T06:37:18.990Z,36.03
2023-12-02T06:42:21.114Z,36.06
2023-12-02T06:47:23.363Z,35.93
2023-12-02T06:52:25.555Z,35.96
2023-12-02T06:57:27.758Z,35.99
2023-12-02T07:02:30.420Z,36.03
2023-12-02T07:07:32.614Z,36.02
2023-12-02T07:12:34.869Z,36.13
2023-12-02T07:17:37.734Z,36.13
2023-12-02T07:22:39.951Z,36.18
2023-12-02T07:27:42.423Z,36.20
2023-12-02T07:32:47.692Z,36.34
2023-12-02T07:37:50.459Z,36.13
2023-12-02T07:42:52.986Z,35.97
2023-12-02T07:47:55.524Z,35.86
2023-12-02T07:52:57.766Z,35.73
2023-12-02T07:58:00.065Z,35.57
2023-12-02T08:03:02.583Z,35.54
2023-12-02T08:08:05.093Z,35.42
2023-12-02T08:13:07.474Z,35.26
2023-12-02T08:18:09.794Z,35.38
2023-12-02T08:23:11.955Z,35.35
2023-12-02T08:28:14.162Z,35.31
2023-12-02T08:33:16.306Z,35.32
2023-12-02T08:38:18.387Z,35.30
2023-12-02T08:43:20.544Z,35.24
2023-12-02T08:48:22.878Z,35.37
2023-12-02T08:53:25.102Z,35.47
2023-12-02T08:58:27.604Z,35.70
2023-12-02T09:03:30.068Z,36.06
2023-12-02T09:08:32.446Z,36.89
2023-12-02T09:13:40.610Z,38.18
2023-12-02T09:18:43.141Z,38.82
2023-12-02T09:23:45.672Z,39.03
2023-12-02T09:28:48.249Z,39.05
2023-12-02T09:34:01.782Z,38.68
2023-12-02T09:39:16.889Z,38.31
2023-12-02T09:44:41.777Z,38.81
2023-12-02T09:50:02.244Z,39.08
2023-12-02T09:55:10.844Z,39.43
2023-12-02T10:00:50.188Z,39.33
2023-12-02T10:06:28.081Z,39.19
2023-12-02T10:11:58.920Z,38.91
2023-12-02T10:17:04.094Z,39.07
2023-12-02T10:22:07.722Z,38.97
2023-12-02T10:27:14.704Z,38.62
2023-12-02T10:32:31.956Z,38.49
2023-12-02T10:37:39.315Z,38.20
2023-12-02T10:42:53.445Z,38.14
2023-12-02T10:47:56.676Z,37.79
2023-12-02T10:53:02.813Z,37.59
2023-12-02T10:58:06.197Z,37.33
2023-12-02T11:03:21.193Z,37.39
2023-12-02T11:08:51.759Z,37.29
2023-12-02T11:13:56.247Z,37.18
2023-12-02T11:19:07.867Z,37.06
2023-12-02T11:24:48.483Z,36.83
2023-12-02T11:30:08.506Z,36.73
2023-12-02T11:35:20.458Z,36.65
2023-12-02T11:40:26.076Z,36.48
2023-12-02T11:45:34.562Z,36.39
2023-12-02T11:50:58.655Z,36.38
2023-12-02T11:56:00.745Z,36.40
2023-12-02T12:01:05.956Z,36.25
2023-12-02T12:06:36.722Z,36.15
2023-12-02T12:11:39.854Z,36.20
2023-12-02T12:16:43.763Z,36.05
2023-12-02T12:21:49.008Z,35.94
2023-12-02T12:26:51.702Z,36.02
2023-12-02T12:31:57.593Z,36.07
2023-12-02T12:36:59.847Z,35.96
2023-12-02T12:42:02.006Z,35.99
2023-12-02T12:47:04.720Z,36.07
2023-12-02T12:52:11.268Z,36.06
2023-12-02T12:57:18.899Z,36.16
2023-12-02T13:03:02.154Z,36.12
2023-12-02T13:08:10.819Z,36.15
2023-12-02T13:13:16.315Z,36.16
2023-12-02T13:18:22.729Z,36.13
2023-12-02T13:23:25.443Z,36.28
2023-12-02T13:28:33.550Z,36.03
2023-12-02T13:33:51.121Z,36.15
2023-12-02T13:39:19.752Z,36.07
2023-12-02T13:44:24.392Z,35.88
2023-12-02T13:49:30.901Z,35.78
2023-12-02T13:54:46.281Z,35.69
2023-12-02T13:59:48.929Z,35.64
2023-12-02T14:05:07.998Z,35.41
2023-12-02T14:10:11.624Z,35.33
2023-12-02T14:15:50.349Z,35.40
2023-12-02T14:21:32.686Z,35.36
2023-12-02T14:27:03.116Z,35.07
2023-12-02T14:32:47.692Z,35.14
2023-12-02T14:38:31.451Z,35.11
2023-12-02T14:43:40.679Z,35.03
2023-12-02T14:48:44.124Z,35.31
2023-12-02T14:53:46.680Z,35.00
2023-12-02T14:58:49.119Z,34.89
2023-12-02T15:03:55.198Z,35.08
2023-12-02T15:09:01.661Z,34.86
2023-12-02T15:14:04.912Z,34.64
2023-12-02T15:19:10.921Z,34.57
2023-12-02T15:24:13.495Z,34.61
2023-12-02T15:29:16.288Z,34.51
2023-12-02T15:34:18.652Z,34.47
2023-12-02T15:39:21.019Z,34.50
2023-12-02T15:44:24.192Z,34.68
2023-12-02T15:49:26.556Z,34.46
2023-12-02T15:54:30.236Z,34.42
2023-12-02T15:59:33.173Z,34.72
2023-12-02T16:04:37.782Z,34.31
2023-12-02T16:09:47.742Z,34.30
2023-12-02T16:14:50.348Z,34.13
2023-12-02T16:19:54.640Z,34.24
2023-12-02T16:24:57.414Z,34.05
2023-12-02T16:29:59.692Z,34.19
2023-12-02T16:35:01.930Z,33.99
2023-12-02T16:40:05.693Z,34.31
2023-12-02T16:45:22.442Z,34.14
2023-12-02T16:50:32.212Z,34.04
2023-12-02T16:55:35.387Z,33.92
2023-12-02T17:00:40.282Z,34.15
2023-12-02T17:05:42.471Z,34.02
2023-12-02T17:10:44.871Z,33.93
2023-12-02T17:15:47.141Z,34.28
2023-12-02T17:20:49.564Z,33.88
2023-12-02T17:25:56.804Z,34.24
2023-12-02T17:31:00.266Z,34.12
2023-12-02T17:36:02.496Z,33.98
2023-12-02T17:41:05.241Z,33.95
2023-12-02T17:46:07.725Z,33.97
2023-12-02T17:51:10.697Z,34.04
2023-12-02T17:56:13.426Z,33.88
2023-12-02T18:01:17.077Z,33.95
2023-12-02T18:06:19.766Z,34.25
2023-12-02T18:11:22.030Z,33.82
2023-12-02T18:16:24.386Z,33.90
2023-12-02T18:21:27.441Z,33.69
2023-12-02T18:26:29.819Z,33.67
2023-12-02T18:31:32.785Z,33.80
2023-12-02T18:36:35.077Z,33.64
2023-12-02T18:41:37.278Z,33.66
2023-12-02T18:46:39.657Z,33.55
2023-12-02T18:51:41.946Z,33.35
2023-12-02T18:56:44.113Z,33.37
2023-12-02T19:01:46.289Z,33.47
2023-12-02T19:06:48.617Z,33.53
2023-12-02T19:11:50.804Z,33.75
2023-12-02T19:16:53.148Z,33.72
2023-12-02T19:21:55.343Z,33.37
2023-12-02T19:26:58.049Z,33.48
2023-12-02T19:32:00.574Z,33.34
2023-12-02T19:37:03.534Z,33.35
2023-12-02T19:42:08.113Z,33.64
2023-12-02T19:47:10.517Z,33.51
2023-12-02T19:52:12.833Z,33.57
2023-12-02T19:57:15.220Z,33.57
2023-12-02T20:02:17.881Z,33.57
2023-12-02T20:07:21.207Z,33.89
2023-12-02T20:12:23.556Z,33.66
2023-12-02T20:17:26.067Z,33.86
2023-12-02T20:22:28.407Z,33.85
2023-12-02T20:27:30.955Z,33.75
2023-12-02T20:32:33.656Z,33.86
2023-12-02T20:37:36.115Z,33.60
2023-12-02T20:42:38.909Z,33.54
2023-12-02T20:47:41.355Z,33.75
2023-12-02T20:52:43.758Z,33.85
2023-12-02T20:57:46.151Z,33.78
2023-12-02T21:02:48.442Z,33.57
2023-12-02T21:07:50.955Z,33.78
2023-12-02T21:12:53.207Z,33.71
2023-12-02T21:17:55.507Z,33.63
2023-12-02T21:22:57.760Z,33.68
2023-12-02T21:28:00.111Z,33.55
2023-12-02T21:33:04.185Z,33.59
2023-12-02T21:38:28.969Z,33.49
2023-12-02T21:43:31.530Z,33.54
2023-12-02T21:48:38.383Z,33.86
2023-12-02T21:53:40.584Z,33.57
2023-12-02T21:58:43.021Z,33.76
2023-12-02T22:03:45.654Z,33.52
2023-12-02T22:08:47.892Z,33.55
2023-12-02T22:13:50.183Z,33.32
2023-12-02T22:18:52.655Z,33.53
2023-12-02T22:24:00.937Z,33.63
2023-12-02T22:29:09.397Z,33.37
2023-12-02T22:34:15.388Z,33.44
2023-12-02T22:39:24.670Z,33.45
2023-12-02T22:44:26.988Z,33.34
2023-12-02T22:49:34.061Z,33.32
2023-12-02T22:54:41.131Z,33.20
2023-12-02T22:59:43.451Z,33.23
2023-12-02T23:04:45.874Z,33.28
2023-12-02T23:09:52.974Z,33.33
2023-12-02T23:15:00.349Z,33.34
2023-12-02T23:20:05.092Z,33.16
2023-12-02T23:25:12.247Z,33.21
2023-12-02T23:30:14.914Z,33.21
2023-12-02T23:35:21.506Z,33.13
2023-12-02T23:40:31.408Z,33.20
2023-12-02T23:45:34.077Z,33.17
2023-12-02T23:50:37.217Z,33.29
2023-12-02T23:55:39.601Z,33.30
